Time;durP1;ratioP1;P1;durP2;ratioP2;P2;SDS_P1;SDS_P2;PMS_P1;PMS_P2;Temp;Humidity;BMP_temperature;BMP_pressure;BME280_temperature;BME280_humidity;BME280_pressure;Samples;Min_cycle;Max_cycle;Signal;HPM_P1;HPM_P2
2023/05/24 00:02:18;;;;;;;12.85;3.38;;;;;;;12.65;53.97;102383.50;5009735;28;20049;-64
2023/05/24 00:04:44;;;;;;;13.38;3.38;;;;;;;12.58;53.67;102379.09;5010634;28;20429;-64
2023/05/24 00:07:09;;;;;;;12.55;3.10;;;;;;;12.54;54.19;102375.94;5008184;28;20022;-64
2023/05/24 00:09:35;;;;;;;11.15;2.80;;;;;;;12.62;53.85;102372.00;5015377;28;20033;-64
2023/05/24 00:12:00;;;;;;;10.07;3.38;;;;;;;12.48;54.12;102366.53;5018427;28;20037;-64
2023/05/24 00:14:25;;;;;;;10.27;2.95;;;;;;;12.55;54.26;102366.47;5015848;28;20121;-64
2023/05/24 00:16:51;;;;;;;9.15;2.88;;;;;;;12.53;54.30;102363.06;5022963;28;20224;-64
2023/05/24 00:19:17;;;;;;;8.88;2.88;;;;;;;12.47;54.51;102350.91;5014932;28;20125;-64
2023/05/24 00:21:45;;;;;;;11.05;2.92;;;;;;;12.44;54.25;102353.31;5019444;28;20113;-64
2023/05/24 00:24:11;;;;;;;13.65;3.30;;;;;;;12.45;54.55;102355.00;5016357;28;20028;-64
2023/05/24 00:26:36;;;;;;;15.05;3.30;;;;;;;12.46;54.17;102353.94;5013863;28;20720;-64
2023/05/24 00:29:01;;;;;;;9.80;3.03;;;;;;;12.41;54.18;102350.97;5024623;28;20029;-64
2023/05/24 00:31:27;;;;;;;12.13;2.97;;;;;;;12.35;54.56;102349.97;5033387;28;20033;-64
2023/05/24 00:33:52;;;;;;;13.93;3.35;;;;;;;12.27;54.55;102347.47;5012729;28;20077;-64
2023/05/24 00:36:17;;;;;;;9.73;3.17;;;;;;;12.30;54.74;102347.03;5025318;28;20061;-64
2023/05/24 00:38:42;;;;;;;14.85;3.35;;;;;;;12.27;54.90;102350.25;5025829;28;20417;-64
2023/05/24 00:41:08;;;;;;;11.68;2.92;;;;;;;12.23;54.56;102344.28;5026550;28;20037;-65
2023/05/24 00:43:33;;;;;;;12.45;3.13;;;;;;;12.23;54.72;102340.66;5033031;28;20044;-64
2023/05/24 00:46:14;;;;;;;13.25;3.60;;;;;;;12.21;54.58;102334.44;5019945;28;20496;-64
2023/05/24 00:48:40;;;;;;;13.25;3.38;;;;;;;12.16;54.80;102346.28;5022277;28;20414;-65
2023/05/24 00:51:05;;;;;;;10.88;3.22;;;;;;;12.14;54.72;102342.84;5022055;28;20029;-64
2023/05/24 00:53:32;;;;;;;13.88;3.42;;;;;;;12.13;55.22;102341.16;5027391;28;20589;-64
2023/05/24 00:55:58;;;;;;;13.10;3.47;;;;;;;12.13;55.37;102340.31;5011665;28;20042;-64
2023/05/24 00:58:29;;;;;;;13.50;3.22;;;;;;;12.12;55.49;102344.19;5013922;28;20371;-64
2023/05/24 01:00:58;;;;;;;12.07;3.65;;;;;;;12.09;55.48;102337.13;5013782;28;20022;-64
2023/05/24 01:03:25;;;;;;;10.90;4.00;;;;;;;12.07;55.62;102335.66;5012563;28;20695;-65
2023/05/24 01:05:51;;;;;;;12.18;3.30;;;;;;;12.00;55.44;102338.50;5013548;28;20064;-64
2023/05/24 01:09:05;;;;;;;12.70;3.88;;;;;;;12.06;55.42;102340.34;5014609;28;20104;-64
2023/05/24 01:11:48;;;;;;;9.93;3.67;;;;;;;11.99;55.66;102328.44;4955142;28;20049;-64
2023/05/24 01:14:43;;;;;;;10.05;3.38;;;;;;;11.99;55.40;102332.09;5017974;28;20095;-64
2023/05/24 01:17:22;;;;;;;6.90;2.80;;;;;;;11.86;55.53;102326.59;5012264;28;20046;-65
2023/05/24 01:19:51;;;;;;;8.98;3.53;;;;;;;11.82;55.56;102327.25;5013127;28;20076;-64
2023/05/24 01:22:55;;;;;;;13.18;3.38;;;;;;;11.92;55.52;102324.88;5013130;28;20093;-64
2023/05/24 01:25:59;;;;;;;11.55;3.90;;;;;;;11.91;55.26;102320.38;5016124;28;20029;-64
2023/05/24 01:28:26;;;;;;;10.15;3.80;;;;;;;11.79;55.95;102323.00;5033245;28;20034;-65
2023/05/24 01:30:52;;;;;;;10.07;3.63;;;;;;;11.76;56.22;102323.47;5020842;28;20389;-64
2023/05/24 01:33:17;;;;;;;12.90;3.92;;;;;;;11.80;56.28;102321.94;5032438;28;20116;-64
2023/05/24 01:35:42;;;;;;;15.88;4.18;;;;;;;11.78;56.12;102324.91;5026476;28;20042;-64
2023/05/24 01:38:11;;;;;;;12.50;3.90;;;;;;;11.79;56.22;102323.00;5012031;28;20564;-64
2023/05/24 01:40:39;;;;;;;12.55;3.78;;;;;;;11.76;56.44;102331.81;5023671;28;20058;-64
2023/05/24 01:43:13;;;;;;;10.82;3.88;;;;;;;11.74;56.54;102333.94;5012061;28;20029;-64
2023/05/24 01:45:49;;;;;;;12.57;4.00;;;;;;;11.74;56.48;102322.81;5010828;28;20121;-64
2023/05/24 01:48:47;;;;;;;11.27;3.95;;;;;;;11.76;56.25;102321.53;5018282;28;20516;-64
2023/05/24 01:51:17;;;;;;;14.18;4.05;;;;;;;11.68;56.51;102318.16;5020859;28;20057;-64
2023/05/24 01:53:46;;;;;;;8.20;3.40;;;;;;;11.55;56.73;102310.75;5032403;28;20109;-64
2023/05/24 01:56:12;;;;;;;16.20;4.53;;;;;;;11.53;56.84;102308.19;5031509;28;20108;-64
2023/05/24 01:58:40;;;;;;;18.67;4.43;;;;;;;11.53;56.86;102308.19;5025027;28;20030;-64
2023/05/24 02:01:06;;;;;;;12.90;4.00;;;;;;;11.54;56.94;102315.47;5031118;28;20041;-64
2023/05/24 02:03:32;;;;;;;14.38;3.80;;;;;;;11.53;57.10;102318.47;5027848;28;20065;-64
2023/05/24 02:05:57;;;;;;;13.32;4.13;;;;;;;11.57;57.13;102316.09;5019916;28;20026;-65
2023/05/24 02:08:22;;;;;;;11.60;3.90;;;;;;;11.55;57.18;102317.19;5019040;28;20371;-64
2023/05/24 02:10:48;;;;;;;11.95;4.45;;;;;;;11.57;57.06;102327.22;5012368;28;20061;-64
2023/05/24 02:13:15;;;;;;;12.25;4.07;;;;;;;11.47;57.21;102325.75;5012862;28;20036;-64
2023/05/24 02:15:40;;;;;;;10.50;3.63;;;;;;;11.48;57.14;102321.94;5025133;28;20175;-64
2023/05/24 02:18:06;;;;;;;11.35;3.75;;;;;;;11.49;56.99;102329.19;5012663;28;20092;-64
2023/05/24 02:20:35;;;;;;;13.32;4.07;;;;;;;11.46;57.16;102332.41;5011764;28;20036;-64
2023/05/24 02:23:04;;;;;;;10.63;4.45;;;;;;;11.42;57.13;102333.09;5011933;28;20518;-64
2023/05/24 02:25:30;;;;;;;11.00;4.15;;;;;;;11.41;57.51;102334.16;5020698;28;20036;-64
2023/05/24 02:27:56;;;;;;;15.20;4.40;;;;;;;11.42;57.13;102321.97;5012565;28;20025;-64
2023/05/24 02:30:21;;;;;;;13.95;4.38;;;;;;;11.41;57.33;102334.16;5010864;28;20038;-64
2023/05/24 02:32:47;;;;;;;10.27;3.83;;;;;;;11.37;57.52;102328.19;5012222;28;20065;-65
2023/05/24 02:35:12;;;;;;;12.40;4.40;;;;;;;11.39;57.66;102328.81;5025700;28;20033;-64
2023/05/24 02:37:37;;;;;;;12.60;4.15;;;;;;;11.40;57.07;102332.47;5013885;28;20033;-66
2023/05/24 02:40:03;;;;;;;12.05;4.38;;;;;;;11.36;57.18;102317.28;5011055;28;20022;-64
2023/05/24 02:42:28;;;;;;;12.73;4.45;;;;;;;11.24;57.48;102318.00;5023406;28;20025;-64
2023/05/24 02:44:53;;;;;;;13.30;4.10;;;;;;;11.15;57.75;102324.88;5031771;28;20057;-64
2023/05/24 02:47:19;;;;;;;12.10;4.00;;;;;;;11.19;57.45;102328.91;5026547;28;20029;-64
2023/05/24 02:49:44;;;;;;;12.00;4.07;;;;;;;11.16;57.72;102334.06;5010654;28;20025;-64
2023/05/24 02:52:09;;;;;;;12.30;4.22;;;;;;;11.14;57.66;102336.22;5010607;28;20165;-64
2023/05/24 02:54:35;;;;;;;11.32;4.10;;;;;;;11.06;57.71;102327.06;5011162;28;20045;-64
2023/05/24 02:57:02;;;;;;;11.45;4.22;;;;;;;11.07;57.83;102336.25;5010007;28;20056;-64
2023/05/24 02:59:27;;;;;;;11.73;4.43;;;;;;;11.02;57.82;102336.91;5016773;28;20168;-64
2023/05/24 03:01:52;;;;;;;12.45;3.85;;;;;;;11.06;57.69;102331.78;5020358;28;20041;-64
2023/05/24 03:04:17;;;;;;;12.25;4.25;;;;;;;11.09;57.71;102328.56;5025176;28;20022;-64
2023/05/24 03:06:43;;;;;;;11.95;4.30;;;;;;;11.07;57.67;102328.75;5011316;28;20371;-64
2023/05/24 03:09:08;;;;;;;11.02;4.40;;;;;;;11.03;57.83;102326.66;5010263;28;20501;-64
2023/05/24 03:11:33;;;;;;;14.10;4.60;;;;;;;11.00;58.02;102329.84;5012197;28;20129;-64
2023/05/24 03:13:59;;;;;;;12.95;4.43;;;;;;;10.96;57.80;102328.59;5030237;28;20315;-64
2023/05/24 03:16:24;;;;;;;15.77;4.32;;;;;;;10.92;58.01;102327.31;5013600;28;20042;-64
2023/05/24 03:18:50;;;;;;;10.30;4.35;;;;;;;10.94;57.83;102326.03;5014765;28;20041;-64
2023/05/24 03:21:19;;;;;;;16.38;4.78;;;;;;;10.90;58.04;102330.34;5030943;28;20033;-64
2023/05/24 03:23:44;;;;;;;11.82;4.68;;;;;;;10.89;58.36;102323.09;5023065;28;20116;-64
2023/05/24 03:26:11;;;;;;;12.02;4.82;;;;;;;10.90;58.24;102322.00;5029564;28;20100;-65
2023/05/24 03:28:37;;;;;;;14.65;5.15;;;;;;;10.87;58.44;102322.44;5028135;28;20496;-64
2023/05/24 03:31:03;;;;;;;16.92;5.13;;;;;;;10.81;58.47;102326.94;5009570;28;20064;-64
2023/05/24 03:33:28;;;;;;;12.40;4.55;;;;;;;10.74;58.74;102322.50;5016133;28;20036;-64
2023/05/24 03:35:53;;;;;;;12.55;5.03;;;;;;;10.78;58.73;102318.22;5011013;28;20501;-64
2023/05/24 03:38:18;;;;;;;11.40;4.13;;;;;;;10.78;59.29;102315.44;5012775;28;20061;-64
2023/05/24 03:40:44;;;;;;;10.63;5.03;;;;;;;10.76;59.18;102309.22;5020091;28;20038;-64
2023/05/24 03:43:09;;;;;;;14.20;4.47;;;;;;;10.81;59.27;102317.78;5010643;28;20034;-64
2023/05/24 03:45:35;;;;;;;10.48;5.13;;;;;;;10.81;59.05;102315.84;5017909;28;20037;-64
2023/05/24 03:48:00;;;;;;;17.20;5.32;;;;;;;10.82;59.20;102322.25;5021303;28;20100;-64
2023/05/24 03:50:25;;;;;;;18.05;5.22;;;;;;;10.81;59.08;102317.78;5008703;28;20473;-64
2023/05/24 03:52:51;;;;;;;13.82;5.00;;;;;;;10.82;59.29;102314.75;5009642;28;20041;-64
2023/05/24 03:55:17;;;;;;;14.18;5.07;;;;;;;10.80;59.19;102328.00;5016015;28;20025;-64
2023/05/24 03:57:42;;;;;;;14.18;5.03;;;;;;;10.81;59.19;102317.78;5014841;28;20500;-64
2023/05/24 04:00:08;;;;;;;15.65;4.93;;;;;;;10.74;59.62;102319.72;5011157;28;20037;-64
2023/05/24 04:02:36;;;;;;;14.77;5.32;;;;;;;10.71;59.76;102314.59;5027282;28;20041;-64
2023/05/24 04:05:02;;;;;;;16.40;5.30;;;;;;;10.62;59.94;102311.22;5013901;28;20030;-64
2023/05/24 04:07:28;;;;;;;13.52;4.88;;;;;;;10.62;60.23;102315.91;5010897;28;20071;-64
2023/05/24 04:09:53;;;;;;;11.90;4.88;;;;;;;10.69;60.12;102313.94;5008833;28;20084;-64
2023/05/24 04:12:18;;;;;;;13.95;4.88;;;;;;;10.72;60.49;102306.03;5019857;28;20064;-64
2023/05/24 04:14:44;;;;;;;11.75;5.70;;;;;;;10.68;60.18;102318.66;5009450;28;20045;-64
2023/05/24 04:17:09;;;;;;;16.42;5.30;;;;;;;10.73;59.94;102323.56;5013884;28;20409;-64
2023/05/24 04:19:34;;;;;;;16.75;5.95;;;;;;;10.69;60.55;102333.38;5009610;28;20045;-64
2023/05/24 04:22:00;;;;;;;13.35;5.60;;;;;;;10.68;60.42;102326.13;5008853;28;20025;-64
2023/05/24 04:24:25;;;;;;;15.02;5.82;;;;;;;10.68;60.40;102326.13;5010192;28;20151;-65
2023/05/24 04:26:50;;;;;;;17.77;6.05;;;;;;;10.61;60.61;102328.94;5010095;28;20092;-64
2023/05/24 04:29:17;;;;;;;15.25;5.18;;;;;;;10.65;60.46;102329.34;5011275;28;20069;-64
2023/05/24 04:31:43;;;;;;;11.75;4.80;;;;;;;10.69;60.45;102327.81;5015541;28;20076;-64
2023/05/24 04:34:11;;;;;;;13.65;5.40;;;;;;;10.69;60.69;102327.81;5006972;28;20034;-64
2023/05/24 04:36:37;;;;;;;13.80;5.43;;;;;;;10.65;60.92;102332.09;5013152;28;20030;-63
2023/05/24 04:39:03;;;;;;;16.60;6.13;;;;;;;10.67;60.87;102325.28;5013430;28;20456;-63
2023/05/24 04:41:30;;;;;;;13.63;5.43;;;;;;;10.69;60.89;102322.28;5021010;28;20033;-63
2023/05/24 04:43:58;;;;;;;14.73;5.60;;;;;;;10.74;60.87;102325.28;5026693;28;20029;-63
2023/05/24 04:46:24;;;;;;;20.08;6.05;;;;;;;10.65;61.41;102332.09;5010037;28;20591;-64
2023/05/24 04:48:50;;;;;;;12.65;5.60;;;;;;;10.67;61.31;102335.53;5008819;28;20040;-63
2023/05/24 04:51:15;;;;;;;16.83;6.38;;;;;;;10.71;61.58;102336.81;5008375;28;20037;-63
2023/05/24 04:53:41;;;;;;;13.40;5.32;;;;;;;10.71;61.61;102337.66;5009895;28;20100;-64
2023/05/24 04:56:07;;;;;;;13.27;5.85;;;;;;;10.78;61.31;102338.50;5017523;28;20025;-63
2023/05/24 04:58:33;;;;;;;15.65;5.82;;;;;;;10.76;61.51;102335.06;5023081;28;20030;-64
2023/05/24 05:00:59;;;;;;;16.17;5.82;;;;;;;10.78;61.65;102337.66;5026985;28;20048;-63
2023/05/24 05:03:25;;;;;;;14.32;5.20;;;;;;;10.80;61.59;102333.56;5015383;28;20723;-64
2023/05/24 05:05:50;;;;;;;14.35;5.68;;;;;;;10.82;61.69;102336.97;5017699;28;20029;-63
2023/05/24 05:08:15;;;;;;;17.55;6.45;;;;;;;10.83;62.03;102332.28;5022525;28;20030;-64
2023/05/24 05:10:41;;;;;;;15.75;5.88;;;;;;;10.79;62.31;102317.97;5020175;28;20026;-64
2023/05/24 05:13:06;;;;;;;14.52;5.53;;;;;;;10.84;62.21;102331.19;5023780;28;20030;-64
2023/05/24 05:15:32;;;;;;;19.48;6.85;;;;;;;10.81;62.54;102329.72;5019243;28;20081;-63
2023/05/24 05:17:57;;;;;;;20.17;6.85;;;;;;;10.88;62.32;102335.25;5021232;28;20113;-64
2023/05/24 05:20:23;;;;;;;19.45;6.88;;;;;;;10.94;62.46;102342.72;5014961;28;20037;-66
2023/05/24 05:22:48;;;;;;;16.13;5.88;;;;;;;10.96;62.73;102345.25;5019673;28;20076;-64
2023/05/24 05:25:14;;;;;;;17.63;6.13;;;;;;;11.06;62.57;102349.28;5027102;28;20439;-65
2023/05/24 05:27:39;;;;;;;18.13;6.85;;;;;;;11.08;62.61;102343.50;5021131;28;20033;-65
2023/05/24 05:30:05;;;;;;;18.33;6.85;;;;;;;11.14;62.92;102352.91;5020634;28;20034;-65
2023/05/24 05:32:31;;;;;;;18.63;6.82;;;;;;;11.15;62.85;102346.25;5012393;28;20038;-65
2023/05/24 05:34:56;;;;;;;15.63;6.32;;;;;;;11.28;62.74;102341.50;5013222;28;20374;-66
2023/05/24 05:37:21;;;;;;;21.92;6.82;;;;;;;11.29;62.52;102339.56;5014571;28;20496;-66
2023/05/24 05:39:46;;;;;;;19.73;6.75;;;;;;;11.38;62.74;102338.22;5012752;28;20042;-66
2023/05/24 05:42:12;;;;;;;15.77;5.97;;;;;;;11.43;63.06;102334.78;5015390;28;20022;-64
2023/05/24 05:44:37;;;;;;;20.85;6.78;;;;;;;11.55;62.70;102333.00;5013063;28;20465;-63
2023/05/24 05:47:03;;;;;;;18.38;7.72;;;;;;;11.56;62.64;102334.72;5013847;28;20083;-63
2023/05/24 05:49:30;;;;;;;24.70;7.35;;;;;;;11.68;62.72;102343.19;5022206;28;20034;-63
2023/05/24 05:51:55;;;;;;;19.80;6.45;;;;;;;11.72;62.73;102338.91;5023806;28;20044;-63
2023/05/24 05:54:21;;;;;;;18.08;7.22;;;;;;;11.85;62.94;102340.75;5017378;28;20025;-62
2023/05/24 05:56:46;;;;;;;21.35;7.18;;;;;;;11.93;62.67;102346.88;5016812;28;20057;-61
2023/05/24 05:59:14;;;;;;;22.05;7.13;;;;;;;12.00;62.54;102342.13;5011404;28;20026;-61
2023/05/24 06:01:40;;;;;;;18.73;6.75;;;;;;;12.12;62.00;102349.75;5007797;28;20029;-64
2023/05/24 06:04:05;;;;;;;22.67;7.00;;;;;;;12.20;62.21;102349.47;5011763;28;20038;-63
2023/05/24 06:06:31;;;;;;;18.92;6.88;;;;;;;12.23;62.39;102354.59;5008089;28;20034;-63
2023/05/24 06:08:57;;;;;;;18.45;6.22;;;;;;;12.32;62.04;102357.94;5009557;28;20416;-63
2023/05/24 06:11:22;;;;;;;23.20;7.30;;;;;;;12.43;61.52;102362.75;5021276;28;20469;-64
2023/05/24 06:13:48;;;;;;;16.85;7.00;;;;;;;12.49;61.52;102359.88;5021724;28;20072;-64
2023/05/24 06:16:13;;;;;;;22.30;7.10;;;;;;;12.59;61.80;102362.16;5025935;28;20045;-63
2023/05/24 06:18:39;;;;;;;20.25;6.90;;;;;;;12.66;61.64;102371.31;5008388;28;20076;-63
2023/05/24 06:21:05;;;;;;;21.90;6.35;;;;;;;12.76;61.49;102363.25;5007145;28;20108;-63
2023/05/24 06:23:31;;;;;;;18.88;7.28;;;;;;;12.86;60.89;102370.25;5010728;28;20546;-63
2023/05/24 06:25:57;;;;;;;19.42;7.30;;;;;;;12.91;60.94;102365.66;5008018;28;20061;-64
2023/05/24 06:28:23;;;;;;;22.98;7.95;;;;;;;12.90;61.64;102368.69;5014290;28;20775;-63
2023/05/24 06:30:48;;;;;;;23.70;8.13;;;;;;;12.96;61.15;102365.81;5016721;28;20040;-62
2023/05/24 06:33:13;;;;;;;20.95;7.18;;;;;;;13.09;60.80;102361.19;5025667;28;20030;-63
2023/05/24 06:35:39;;;;;;;28.17;7.90;;;;;;;13.14;61.10;102369.69;5019837;28;20030;-63
2023/05/24 06:38:04;;;;;;;22.08;7.90;;;;;;;13.20;61.11;102364.03;5010772;28;20466;-63
2023/05/24 06:40:29;;;;;;;23.33;7.80;;;;;;;13.31;60.36;102365.19;5009511;28;20470;-62
2023/05/24 06:42:57;;;;;;;21.38;7.65;;;;;;;13.40;60.69;102363.81;5011499;28;20034;-62
2023/05/24 06:45:23;;;;;;;19.58;7.03;;;;;;;13.48;60.27;102360.69;5009962;28;20057;-62
2023/05/24 06:47:48;;;;;;;24.38;7.40;;;;;;;13.61;60.47;102358.78;5009069;28;20443;-62
2023/05/24 06:50:13;;;;;;;24.65;8.57;;;;;;;13.70;59.84;102369.38;5011070;28;20416;-63
2023/05/24 06:52:39;;;;;;;22.52;7.75;;;;;;;13.79;59.17;102358.72;5010387;28;20038;-63
2023/05/24 06:55:04;;;;;;;24.00;8.50;;;;;;;13.84;59.28;102363.63;5010306;28;20018;-63
2023/05/24 06:57:30;;;;;;;21.15;8.25;;;;;;;13.83;59.54;102353.50;5010548;28;20390;-63
2023/05/24 06:59:55;;;;;;;26.85;8.32;;;;;;;13.78;58.88;102362.59;5011029;28;20029;-63
2023/05/24 07:02:25;;;;;;;20.15;8.60;;;;;;;13.67;59.58;102371.78;5019910;28;20051;-63
2023/05/24 07:04:51;;;;;;;22.05;9.07;;;;;;;13.71;59.43;102361.84;5016470;28;20110;-63
2023/05/24 07:07:16;;;;;;;21.80;8.52;;;;;;;13.70;58.50;102363.78;5010795;28;20069;-63
2023/05/24 07:09:43;;;;;;;20.40;8.25;;;;;;;13.71;58.80;102367.44;5011015;28;20068;-62
2023/05/24 07:12:08;;;;;;;20.13;9.00;;;;;;;13.70;58.19;102371.31;5010430;28;20037;-63
2023/05/24 07:14:34;;;;;;;27.50;9.38;;;;;;;13.74;58.36;102366.97;5010022;28;20164;-63
2023/05/24 07:16:59;;;;;;;19.83;8.88;;;;;;;13.82;57.87;102358.25;5009553;28;20099;-63
2023/05/24 07:19:27;;;;;;;26.48;9.10;;;;;;;13.83;57.56;102367.47;5029952;28;20505;-62
2023/05/24 07:21:54;;;;;;;25.40;8.68;;;;;;;13.77;57.43;102374.03;5022940;28;20381;-62
2023/05/24 07:24:21;;;;;;;22.05;8.70;;;;;;;13.77;57.67;102372.06;5029708;28;20048;-62
2023/05/24 07:26:46;;;;;;;22.70;9.00;;;;;;;13.79;57.19;102375.47;5030317;28;20807;-63
2023/05/24 07:29:12;;;;;;;21.08;8.65;;;;;;;13.78;57.43;102370.97;5029233;28;20167;-63
2023/05/24 07:31:37;;;;;;;24.17;9.13;;;;;;;13.77;57.82;102369.28;5028882;28;20365;-63
2023/05/24 07:34:02;;;;;;;29.45;9.23;;;;;;;13.73;57.54;102373.63;5029832;28;20025;-63
2023/05/24 07:36:31;;;;;;;23.25;9.32;;;;;;;13.72;57.90;102372.78;5025190;28;20400;-63
2023/05/24 07:38:56;;;;;;;20.88;7.68;;;;;;;13.73;57.89;102377.28;5009244;28;20033;-63
2023/05/24 07:41:25;;;;;;;22.00;8.07;;;;;;;13.75;57.49;102371.44;5009900;28;20055;-63
2023/05/24 07:43:50;;;;;;;24.30;7.97;;;;;;;13.81;57.28;102381.66;5009917;28;20037;-63
2023/05/24 07:46:15;;;;;;;20.75;7.70;;;;;;;13.79;57.12;102374.63;5010325;28;20026;-62
2023/05/24 07:48:40;;;;;;;22.27;7.75;;;;;;;13.74;56.98;102378.97;5024488;28;20022;-62
2023/05/24 07:51:06;;;;;;;16.58;6.88;;;;;;;13.77;57.04;102376.81;5029067;28;20044;-62
2023/05/24 07:53:33;;;;;;;14.95;6.72;;;;;;;13.84;57.44;102369.19;5029320;28;20022;-62
2023/05/24 07:55:59;;;;;;;21.75;6.13;;;;;;;14.00;55.94;102374.09;5029723;28;20029;-63
2023/05/24 07:58:25;;;;;;;17.92;5.60;;;;;;;14.09;55.65;102371.78;5028583;28;20021;-62
2023/05/24 08:00:51;;;;;;;20.63;5.70;;;;;;;14.25;55.73;102374.72;5029944;28;20051;-63
2023/05/24 08:03:17;;;;;;;18.05;5.45;;;;;;;14.40;55.51;102377.06;5024351;28;20087;-62
2023/05/24 08:05:42;;;;;;;18.00;5.68;;;;;;;14.56;54.80;102377.47;5011004;28;20061;-62
2023/05/24 08:08:08;;;;;;;14.32;4.90;;;;;;;14.69;53.97;102369.66;5010297;28;20105;-62
2023/05/24 08:10:33;;;;;;;18.52;6.10;;;;;;;14.79;53.90;102366.28;5008885;28;20509;-62
2023/05/24 08:12:59;;;;;;;16.08;5.78;;;;;;;14.92;54.50;102362.38;5022477;28;20033;-63
2023/05/24 08:15:24;;;;;;;18.08;5.40;;;;;;;15.03;52.70;102372.69;5025897;28;20056;-61
2023/05/24 08:17:49;;;;;;;17.05;4.80;;;;;;;15.02;52.24;102364.56;5009605;28;20040;-63
2023/05/24 08:20:16;;;;;;;18.17;5.38;;;;;;;14.97;52.29;102371.72;5008662;28;20034;-63
2023/05/24 08:22:42;;;;;;;20.63;5.35;;;;;;;14.91;52.01;102372.69;5012800;28;20142;-63
2023/05/24 08:25:08;;;;;;;12.95;4.50;;;;;;;14.89;51.45;102372.09;5009361;28;20109;-62
2023/05/24 08:27:33;;;;;;;14.73;4.45;;;;;;;15.01;51.14;102374.84;5022006;28;20041;-63
2023/05/24 08:30:00;;;;;;;15.68;4.82;;;;;;;15.11;51.45;102363.06;5030684;28;20051;-63
2023/05/24 08:32:26;;;;;;;13.43;4.70;;;;;;;15.22;50.42;102365.00;5030712;28;20136;-62
2023/05/24 08:34:51;;;;;;;13.60;4.30;;;;;;;15.32;50.23;102364.34;5027620;28;20108;-63
2023/05/24 08:37:21;;;;;;;20.08;4.40;;;;;;;15.39;50.87;102365.88;5030114;28;20044;-63
2023/05/24 08:39:47;;;;;;;14.15;4.57;;;;;;;15.42;50.86;102354.22;5013208;28;20396;-62
2023/05/24 08:42:12;;;;;;;18.05;4.75;;;;;;;15.46;50.67;102361.00;5014484;28;20030;-63
2023/05/24 08:44:46;;;;;;;14.45;4.70;;;;;;;15.44;50.25;102353.94;5013227;28;20366;-62
2023/05/24 08:47:12;;;;;;;15.98;4.80;;;;;;;15.50;50.59;102354.91;5012528;28;20038;-63
2023/05/24 08:49:39;;;;;;;13.88;4.32;;;;;;;15.61;49.55;102356.81;5012762;28;20029;-62
2023/05/24 08:52:06;;;;;;;19.15;5.20;;;;;;;15.58;49.19;102346.13;5030909;28;20397;-63
2023/05/24 08:54:34;;;;;;;14.68;5.10;;;;;;;15.54;49.32;102347.72;5029430;28;20025;-63
2023/05/24 08:56:59;;;;;;;17.52;5.25;;;;;;;15.61;49.80;102351.22;5031328;28;20030;-63
2023/05/24 08:59:25;;;;;;;12.38;4.30;;;;;;;15.63;49.41;102344.25;5025793;28;20837;-63
2023/05/24 09:01:53;;;;;;;17.75;5.03;;;;;;;15.57;49.36;102342.47;5032284;28;20032;-63
2023/05/24 09:04:21;;;;;;;13.70;4.80;;;;;;;15.46;49.36;102338.63;5032379;28;20584;-63
2023/05/24 09:06:47;;;;;;;13.00;4.38;;;;;;;15.39;49.99;102337.91;5031573;28;20025;-63
2023/05/24 09:09:16;;;;;;;14.32;4.75;;;;;;;15.38;50.05;102340.97;5031181;28;20063;-63
2023/05/24 09:11:46;;;;;;;17.25;4.93;;;;;;;15.32;49.95;102339.16;5030288;28;20033;-63
2023/05/24 09:14:12;;;;;;;14.68;4.20;;;;;;;15.32;50.36;102342.78;5022516;28;20057;-63
2023/05/24 09:16:38;;;;;;;12.90;4.28;;;;;;;15.33;50.83;102340.88;5031750;28;20128;-63
2023/05/24 09:19:03;;;;;;;15.07;4.57;;;;;;;15.43;50.08;102341.06;5032448;28;20439;-63
2023/05/24 09:21:29;;;;;;;16.98;5.00;;;;;;;15.49;50.24;102339.22;5031625;28;20094;-63
2023/05/24 09:23:54;;;;;;;16.63;4.70;;;;;;;15.44;50.09;102339.97;5031980;28;20033;-63
2023/05/24 09:26:20;;;;;;;13.85;4.72;;;;;;;15.47;49.79;102331.91;5032224;28;20065;-63
2023/05/24 09:28:46;;;;;;;15.75;4.47;;;;;;;15.46;49.29;102338.63;5031671;28;20068;-63
2023/05/24 09:31:12;;;;;;;13.65;4.13;;;;;;;15.47;49.21;102343.09;5023328;28;20018;-63
2023/05/24 09:33:38;;;;;;;16.27;4.88;;;;;;;15.40;49.25;102341.56;5031744;28;20030;-62
2023/05/24 09:36:05;;;;;;;14.60;4.50;;;;;;;15.36;49.80;102338.41;5031839;28;20034;-61
2023/05/24 09:38:32;;;;;;;16.15;4.75;;;;;;;15.33;49.75;102338.94;5031448;28;20056;-63
2023/05/24 09:41:01;;;;;;;15.15;4.20;;;;;;;15.54;50.01;102339.31;5031316;28;20431;-63
2023/05/24 09:43:29;;;;;;;15.50;4.25;;;;;;;15.70;48.47;102333.78;5030700;28;20029;-63
2023/05/24 09:45:56;;;;;;;14.88;4.10;;;;;;;15.86;47.45;102332.13;5030182;28;20068;-62
2023/05/24 09:48:22;;;;;;;9.63;3.65;;;;;;;15.91;46.72;102332.19;5028187;28;20033;-63
2023/05/24 09:51:08;;;;;;;10.43;3.65;;;;;;;15.93;48.11;102338.41;5030716;28;20034;-62
2023/05/24 09:53:35;;;;;;;13.38;4.68;;;;;;;15.85;47.67;102337.97;5031808;28;20033;-63
2023/05/24 09:56:04;;;;;;;18.17;4.38;;;;;;;15.77;47.26;102325.25;5030883;28;20071;-63
2023/05/24 09:58:32;;;;;;;13.05;4.28;;;;;;;15.68;47.06;102327.59;5030402;28;20137;-63
2023/05/24 10:01:05;;;;;;;14.23;3.70;;;;;;;15.78;46.84;102328.88;5031697;28;20060;-62
2023/05/24 10:03:30;;;;;;;13.90;4.05;;;;;;;15.81;46.74;102328.38;5031047;28;20044;-62
2023/05/24 10:05:57;;;;;;;12.20;4.68;;;;;;;15.94;47.56;102331.69;5022451;28;20380;-63
2023/05/24 10:08:22;;;;;;;11.57;3.95;;;;;;;15.98;46.29;102325.59;5031678;28;20037;-62
2023/05/24 10:10:48;;;;;;;12.27;3.75;;;;;;;15.95;45.86;102325.03;5030665;28;20042;-63
2023/05/24 10:13:16;;;;;;;16.67;4.28;;;;;;;15.95;46.11;102324.13;5023909;28;20069;-62
2023/05/24 10:15:43;;;;;;;13.52;3.80;;;;;;;15.99;46.61;102324.50;5010979;28;20080;-62
2023/05/24 10:18:08;;;;;;;12.63;3.88;;;;;;;15.92;46.74;102336.72;5011122;28;20091;-63
2023/05/24 10:20:34;;;;;;;9.73;3.47;;;;;;;15.93;47.50;102326.38;5011779;28;20481;-63
2023/05/24 10:23:02;;;;;;;13.73;4.10;;;;;;;16.00;47.24;102320.59;5019430;28;20053;-63
2023/05/24 10:25:28;;;;;;;13.20;4.20;;;;;;;16.00;46.79;102320.59;5030208;28;20030;-62
2023/05/24 10:28:00;;;;;;;11.82;3.75;;;;;;;16.06;46.96;102313.97;5031087;28;20029;-63
2023/05/24 10:30:43;;;;;;;10.70;3.80;;;;;;;16.06;47.82;102312.00;5031082;28;20109;-62
2023/05/24 10:33:12;;;;;;;10.75;3.50;;;;;;;16.05;47.44;102315.94;5030221;28;20385;-63
2023/05/24 10:35:38;;;;;;;13.07;3.85;;;;;;;16.10;47.08;102312.34;5031055;28;20033;-62
2023/05/24 10:38:06;;;;;;;14.07;3.85;;;;;;;16.19;45.78;102319.22;5018895;28;20026;-62
2023/05/24 10:40:32;;;;;;;10.35;3.60;;;;;;;16.38;45.51;102322.59;5014745;28;20044;-62
2023/05/24 10:42:58;;;;;;;11.63;3.63;;;;;;;16.49;45.77;102318.00;5027998;28;20025;-62
2023/05/24 10:45:23;;;;;;;11.23;3.88;;;;;;;16.47;45.66;102307.06;5021604;28;20029;-63
2023/05/24 10:47:49;;;;;;;10.07;3.80;;;;;;;16.45;45.63;102312.06;5011013;28;20075;-63
2023/05/24 10:50:19;;;;;;;11.45;4.07;;;;;;;16.41;44.94;102306.13;5011246;28;20040;-63
2023/05/24 10:52:44;;;;;;;14.25;4.05;;;;;;;16.37;45.23;102309.72;5009725;28;20033;-63
2023/05/24 10:55:10;;;;;;;11.65;3.72;;;;;;;16.34;45.43;102304.63;5010688;28;20500;-63
2023/05/24 10:57:37;;;;;;;11.70;3.70;;;;;;;16.29;45.33;102311.00;5010462;28;20026;-62
2023/05/24 11:00:27;;;;;;;13.95;4.18;;;;;;;16.30;46.02;102309.88;5014398;28;20499;-63
2023/05/24 11:03:09;;;;;;;12.93;4.10;;;;;;;16.30;46.00;102309.03;5030940;28;20029;-63
2023/05/24 11:05:55;;;;;;;11.35;3.38;;;;;;;16.33;46.12;102308.53;5016593;28;20084;-61
2023/05/24 11:08:28;;;;;;;13.80;3.72;;;;;;;16.34;46.02;102305.47;5010127;28;20045;-63
2023/05/24 11:11:19;;;;;;;10.15;3.53;;;;;;;16.37;46.74;102310.56;5010663;28;20033;-63
2023/05/24 11:13:46;;;;;;;14.32;3.70;;;;;;;16.37;46.54;102307.75;5011230;28;20424;-63
2023/05/24 11:16:43;;;;;;;9.82;3.63;;;;;;;16.40;46.94;102304.44;5029819;28;20095;-63
2023/05/24 11:19:15;;;;;;;12.77;3.67;;;;;;;16.35;46.57;102307.19;5030056;28;20069;-65